Terminal Aerodrome Forecast
Issued by NWS Quad Cities IA IL

Home | Current Version | Previous Version | Text Only | Print | Product List | Glossary On
Versions: 1 2 3 4 5 6 7 8 9 10 11 12 13 14 15 16 17 18 19 20 21 22 23 24 25 26 27 28 29 30 31
000
FTUS43 KDVN 171121
TAFDBQ
TAF
KDBQ 171121Z 1712/1812 03004KT 1/4SM FG VV002
     FM171400 30005KT 1SM BR OVC004
     FM171600 30008KT 3SM BR OVC004
     FM180100 28007KT 5SM BR BKN012=

USA.gov is the U.S. government's official web portal to all federal, state and local government web resources and services.